Time;durP1;ratioP1;P1;durP2;ratioP2;P2;SDS_P1;SDS_P2;PMS_P1;PMS_P2;Temp;Humidity;BMP_temperature;BMP_pressure;BME280_temperature;BME280_humidity;BME280_pressure;Samples;Min_cycle;Max_cycle;Signal;HPM_P1;HPM_P2
2024/04/23 00:02:34;;;;;;;33.30;26.00;;;;;;;2.77;77.00;97595.65;104843;1259;102699;-79
2024/04/23 00:05:23;;;;;;;33.50;25.40;;;;;;;2.72;76.90;97598.98;104776;1259;101242;-76
2024/04/23 00:07:54;;;;;;;35.00;25.50;;;;;;;2.69;77.08;97597.39;104879;1270;98016;-78
2024/04/23 00:10:24;;;;;;;38.00;27.50;;;;;;;2.68;77.30;97593.95;104838;1254;97933;-77
2024/04/23 00:13:22;;;;;;;36.60;27.50;;;;;;;2.67;77.34;97592.44;104932;1269;99132;-77
2024/04/23 00:15:54;;;;;;;38.90;28.60;;;;;;;2.68;77.46;97597.15;104548;1256;103315;-79
2024/04/23 00:18:25;;;;;;;40.30;30.10;;;;;;;2.69;77.51;97599.02;104803;1256;101502;-78
2024/04/23 00:21:30;;;;;;;37.10;28.40;;;;;;;2.69;77.42;97597.36;104830;1254;100268;-76
2024/04/23 00:23:58;;;;;;;33.40;25.70;;;;;;;2.67;77.27;97596.12;104330;1260;98076;-79
2024/04/23 00:26:49;;;;;;;33.50;24.60;;;;;;;2.65;77.18;97593.52;104455;1265;98362;-76
2024/04/23 00:29:19;;;;;;;32.90;24.10;;;;;;;2.66;77.11;97594.73;104528;1263;103696;-76
2024/04/23 00:32:13;;;;;;;28.00;21.90;;;;;;;2.69;77.16;97594.76;104424;1272;102350;-83
2024/04/23 00:35:06;;;;;;;34.60;24.80;;;;;;;2.74;77.16;97590.61;104346;1265;99992;-79
2024/04/23 00:37:34;;;;;;;30.10;23.30;;;;;;;2.79;77.06;97589.36;104427;1265;98900;-79
2024/04/23 00:40:42;;;;;;;32.60;23.50;;;;;;;2.81;76.96;97582.23;104441;1261;99797;-82
2024/04/23 00:43:12;;;;;;;31.90;23.30;;;;;;;2.79;76.85;97583.36;104403;1281;102863;-76
2024/04/23 00:46:10;;;;;;;30.70;22.70;;;;;;;2.77;77.04;97579.69;104462;1260;100194;-77
2024/04/23 00:48:44;;;;;;;30.80;22.40;;;;;;;2.72;77.19;97581.65;104390;1264;99852;-79
2024/04/23 00:51:34;;;;;;;31.90;23.50;;;;;;;2.70;77.34;97582.94;104443;1265;97846;-76
2024/04/23 00:54:02;;;;;;;31.60;24.40;;;;;;;2.68;77.43;97585.52;104534;1267;97908;-77
2024/04/23 00:56:51;;;;;;;31.70;24.60;;;;;;;2.68;77.31;97585.89;104893;1259;103638;-77
2024/04/23 00:59:58;;;;;;;33.30;23.20;;;;;;;2.69;77.34;97581.23;104905;1259;101299;-79
2024/04/23 01:02:59;;;;;;;33.90;25.10;;;;;;;2.68;77.34;97579.16;104869;1256;99741;-80
2024/04/23 01:06:00;;;;;;;34.50;23.20;;;;;;;2.67;77.10;97576.59;104782;1278;99154;-81
2024/04/23 01:09:08;;;;;;;28.20;21.90;;;;;;;2.68;77.10;97573.59;104888;1259;98358;-79
2024/04/23 01:11:38;;;;;;;30.80;22.60;;;;;;;2.70;77.18;97571.20;104969;1270;103544;-83
2024/04/23 01:14:47;;;;;;;29.40;22.30;;;;;;;2.69;77.10;97566.64;104880;1257;100424;-81
2024/04/23 01:17:39;;;;;;;29.20;22.70;;;;;;;2.71;77.10;97564.29;104888;1259;98813;-81
2024/04/23 01:20:47;;;;;;;32.40;23.40;;;;;;;2.73;77.17;97563.97;104970;1259;98739;-90
2024/04/23 01:24:01;;;;;;;27.80;22.70;;;;;;;2.69;77.28;97564.11;105328;1254;98838;-91
2024/04/23 01:26:52;;;;;;;30.80;23.60;;;;;;;2.66;77.28;97560.90;105482;1254;103721;-92
2024/04/23 01:29:53;;;;;;;30.20;23.60;;;;;;;2.66;77.39;97555.83;105525;1259;100473;-90
2024/04/23 01:32:41;;;;;;;33.40;24.20;;;;;;;2.65;77.52;97554.50;105006;1258;100185;-78
2024/04/23 01:35:11;;;;;;;30.40;22.50;;;;;;;2.62;77.53;97553.85;104856;1268;98778;-79
2024/04/23 01:38:22;;;;;;;30.90;22.50;;;;;;;2.60;77.39;97550.20;104902;1259;98746;-80
2024/04/23 01:41:30;;;;;;;29.90;22.50;;;;;;;2.59;77.45;97550.33;104585;1268;102778;-81
2024/04/23 01:44:39;;;;;;;30.10;22.90;;;;;;;2.59;77.42;97551.69;104840;1260;100576;-84
2024/04/23 01:47:49;;;;;;;31.00;22.70;;;;;;;2.59;77.42;97548.19;105001;1262;98847;-92
2024/04/23 01:50:37;;;;;;;28.20;21.50;;;;;;;2.54;77.59;97542.38;105073;1259;98854;-91
2024/04/23 01:53:18;;;;;;;37.40;24.60;;;;;;;2.49;77.62;97538.98;104975;1259;98444;-91
2024/04/23 01:56:24;;;;;;;31.10;23.40;;;;;;;2.42;77.56;97539.77;105245;1258;102677;-90
2024/04/23 01:59:22;;;;;;;30.30;23.10;;;;;;;2.39;77.68;97535.67;104865;1259;99390;-92
2024/04/23 02:02:29;;;;;;;28.10;21.50;;;;;;;2.36;77.63;97538.01;105046;1258;99936;-92
2024/04/23 02:05:35;;;;;;;30.30;23.30;;;;;;;2.36;77.80;97533.84;105996;1254;97953;-92
2024/04/23 02:09:07;;;;;;;;;;;;;;;;;;;;;
2024/04/23 02:12:30;;;;;;;30.70;24.10;;;;;;;2.31;77.95;97522.02;106837;1260;101619;-92
2024/04/23 02:15:10;;;;;;;28.00;22.90;;;;;;;2.27;78.08;97517.74;106248;1257;100589;-78
2024/04/23 02:17:49;;;;;;;32.30;23.10;;;;;;;2.25;78.19;97519.83;104739;1259;98999;-82
2024/04/23 02:20:58;;;;;;;32.70;23.60;;;;;;;2.25;78.27;97520.61;104816;1269;98012;-81
2024/04/23 02:24:06;;;;;;;29.90;23.00;;;;;;;2.23;78.42;97515.58;104799;1259;98000;-80
2024/04/23 02:26:42;;;;;;;30.90;23.50;;;;;;;2.20;78.32;97515.05;104898;1258;103591;-79
2024/04/23 02:29:25;;;;;;;29.00;23.60;;;;;;;2.15;78.22;97513.77;105002;1259;100412;-81
2024/04/23 02:32:32;;;;;;;33.90;23.90;;;;;;;2.07;78.18;97514.73;104793;1260;99233;-81
2024/04/23 02:35:40;;;;;;;33.40;24.60;;;;;;;2.00;78.10;97514.27;104922;1260;97929;-76
2024/04/23 02:38:48;;;;;;;31.10;23.20;;;;;;;1.92;78.02;97507.41;104880;1259;97862;-77
2024/04/23 02:41:19;;;;;;;30.50;23.90;;;;;;;1.83;78.01;97503.88;104911;1269;103709;-81
2024/04/23 02:43:47;;;;;;;30.70;21.70;;;;;;;1.76;77.98;97504.42;104901;1254;101357;-79
2024/04/23 02:46:37;;;;;;;32.30;22.80;;;;;;;1.69;77.90;97498.70;104932;1259;99944;-90
2024/04/23 02:49:45;;;;;;;28.80;21.80;;;;;;;1.61;77.92;97501.13;104387;1259;98115;-91
2024/04/23 02:52:20;;;;;;;31.30;22.40;;;;;;;1.53;77.94;97501.42;104355;1280;98370;-91
2024/04/23 02:55:29;;;;;;;27.90;21.50;;;;;;;1.46;77.88;97502.52;104438;1264;102897;-79
2024/04/23 02:57:57;;;;;;;27.20;21.60;;;;;;;1.37;77.87;97503.20;104424;1260;101454;-82
2024/04/23 03:00:25;;;;;;;32.80;23.10;;;;;;;1.29;77.75;97495.45;104414;1266;99328;-79
2024/04/23 03:03:51;;;;;;;28.20;22.50;;;;;;;1.24;77.87;97497.91;104464;1259;98135;-89
2024/04/23 03:06:19;;;;;;;24.50;20.80;;;;;;;1.17;77.95;97496.52;104382;1267;97895;-90
2024/04/23 03:09:27;;;;;;;32.60;22.40;;;;;;;1.11;77.84;97496.73;104167;1271;103453;-91
2024/04/23 03:12:21;;;;;;;31.30;23.30;;;;;;;1.04;77.98;97490.91;104260;1265;101802;-91
2024/04/23 03:14:51;;;;;;;30.60;22.90;;;;;;;0.98;77.97;97491.83;104032;1268;100079;-79
2024/04/23 03:17:38;;;;;;;30.20;23.00;;;;;;;0.89;77.97;97489.11;104392;1281;97949;-91
2024/04/23 03:20:29;;;;;;;30.30;22.00;;;;;;;0.85;78.13;97490.05;104532;1271;99600;-91
2024/04/23 03:23:43;;;;;;;30.60;23.90;;;;;;;0.78;78.05;97489.35;105382;1262;102810;-93
2024/04/23 03:27:03;;;;;;;28.60;22.40;;;;;;;0.72;78.27;97484.60;105338;1265;102062;-91
2024/04/23 03:30:18;;;;;;;28.40;22.30;;;;;;;0.66;78.35;97481.33;105611;1269;99124;-92
2024/04/23 03:33:14;;;;;;;27.60;21.90;;;;;;;0.61;78.36;97477.42;104412;1276;99382;-80
2024/04/23 03:36:22;;;;;;;32.10;23.60;;;;;;;0.56;78.42;97477.13;104065;1276;98465;-81
2024/04/23 03:38:50;;;;;;;35.70;25.00;;;;;;;0.52;78.45;97480.91;104491;1265;102635;-80
2024/04/23 03:41:35;;;;;;;32.00;24.50;;;;;;;0.47;78.50;97483.16;104317;1265;101430;-81
2024/04/23 03:44:19;;;;;;;31.30;24.50;;;;;;;0.42;78.58;97486.14;104271;1268;99083;-80
2024/04/23 03:46:59;;;;;;;35.20;23.90;;;;;;;0.40;78.78;97487.54;104675;1265;97973;-91
2024/04/23 03:49:48;;;;;;;31.90;25.30;;;;;;;0.40;78.92;97487.91;104707;1265;98640;-92
2024/04/23 03:52:21;;;;;;;31.50;24.60;;;;;;;0.40;79.02;97486.80;104900;1265;102891;-82
2024/04/23 03:54:49;;;;;;;33.40;24.20;;;;;;;0.42;79.14;97483.79;104269;1265;100229;-78
2024/04/23 03:57:37;;;;;;;32.70;24.80;;;;;;;0.46;79.19;97483.41;104367;1265;98802;-78
2024/04/23 04:00:06;;;;;;;33.40;25.70;;;;;;;0.49;79.21;97489.15;104465;1264;98036;-77
2024/04/23 04:08:12;;;;;;;34.50;25.50;;;;;;;0.48;79.60;97500.02;104769;1259;100847;-76
2024/04/23 04:10:39;;;;;;;33.40;26.10;;;;;;;0.53;79.72;97501.86;104867;1259;100289;-77
2024/04/23 04:13:10;;;;;;;33.90;26.30;;;;;;;0.57;79.83;97502.08;104690;1259;98016;-79
2024/04/23 04:15:41;;;;;;;37.70;26.70;;;;;;;0.56;79.86;97507.27;104870;1260;98419;-80
2024/04/23 04:18:08;;;;;;;38.50;27.90;;;;;;;0.58;79.94;97506.93;104618;1262;102857;-80
2024/04/23 04:20:36;;;;;;;38.90;27.80;;;;;;;0.59;80.00;97508.68;104853;1259;101473;-80
2024/04/23 04:23:04;;;;;;;36.20;26.70;;;;;;;0.63;80.08;97508.88;104802;1259;98986;-80
2024/04/23 04:25:45;;;;;;;36.80;28.10;;;;;;;0.66;80.17;97506.08;104777;1276;97941;-80
2024/04/23 04:28:16;;;;;;;40.90;28.50;;;;;;;0.69;80.05;97501.43;104905;1263;98476;-80
2024/04/23 04:30:43;;;;;;;45.70;29.20;;;;;;;0.68;80.15;97501.09;104896;1272;103756;-77
2024/04/23 04:33:11;;;;;;;46.90;31.60;;;;;;;0.69;80.11;97496.27;104888;1259;101310;-92
2024/04/23 04:36:09;;;;;;;46.10;33.50;;;;;;;0.70;80.17;97490.96;104886;1259;100172;-91
2024/04/23 04:38:40;;;;;;;44.50;33.50;;;;;;;0.73;80.21;97488.95;104900;1259;97960;-93
2024/04/23 04:41:20;;;;;;;46.60;33.10;;;;;;;0.76;80.32;97486.52;105222;1259;98434;-92
2024/04/23 04:43:53;;;;;;;47.00;35.30;;;;;;;0.79;80.45;97491.18;105276;1260;101620;-90
2024/04/23 04:46:21;;;;;;;54.30;37.00;;;;;;;0.83;80.50;97495.20;105527;1260;100416;-92
2024/04/23 04:48:54;;;;;;;50.50;35.00;;;;;;;0.88;80.63;97491.70;105886;1258;98690;-91
2024/04/23 04:51:38;;;;;;;45.90;35.30;;;;;;;0.94;80.68;97494.86;106055;1259;97900;-93
2024/04/23 04:54:27;;;;;;;54.90;38.60;;;;;;;1.00;80.57;97495.11;105428;1259;98419;-92
2024/04/23 04:57:25;;;;;;;53.00;37.90;;;;;;;1.06;80.61;97491.39;104950;1268;103670;-91
2024/04/23 04:59:55;;;;;;;49.20;38.20;;;;;;;1.10;80.78;97491.91;104675;1257;100430;-92
2024/04/23 05:02:25;;;;;;;48.60;36.70;;;;;;;1.14;80.92;97489.15;104894;1259;99341;-77
2024/04/23 05:04:56;;;;;;;48.50;35.20;;;;;;;1.19;80.88;97485.71;104860;1258;99262;-76
2024/04/23 05:07:24;;;;;;;52.50;36.20;;;;;;;1.23;80.99;97480.86;104808;1260;97965;-76
2024/04/23 05:09:55;;;;;;;54.30;37.90;;;;;;;1.27;81.03;97483.83;104969;1260;102165;-90
2024/04/23 05:12:32;;;;;;;57.50;39.70;;;;;;;1.34;81.07;97481.69;104787;1254;100531;-77
2024/04/23 05:15:00;;;;;;;56.20;40.10;;;;;;;1.42;80.94;97474.85;104935;1270;99840;-77
2024/04/23 05:17:55;;;;;;;56.40;39.60;;;;;;;1.49;80.87;97471.68;104941;1266;98014;-77
2024/04/23 05:21:03;;;;;;;68.50;48.10;;;;;;;1.55;80.78;97466.66;104923;1259;98444;-77
2024/04/23 05:24:01;;;;;;;69.90;47.70;;;;;;;1.56;80.94;97465.86;104907;1254;103262;-76
2024/04/23 05:26:32;;;;;;;63.30;45.00;;;;;;;1.57;81.05;97465.34;104962;1260;101371;-79
2024/04/23 05:29:29;;;;;;;69.70;52.50;;;;;;;1.63;81.15;97466.75;105612;1254;100146;-81
2024/04/23 05:35:31;;;;;;;56.40;43.10;;;;;;;1.76;81.05;97465.20;104922;1259;98518;-79
2024/04/23 05:38:21;;;;;;;44.20;33.70;;;;;;;1.84;80.87;97465.65;104820;1268;102703;-79
2024/04/23 05:40:49;;;;;;;46.90;34.40;;;;;;;1.93;80.65;97463.84;105042;1260;100864;-80
2024/04/23 05:43:58;;;;;;;46.70;32.20;;;;;;;2.01;80.55;97459.31;104836;1260;98658;-81
2024/04/23 05:46:27;;;;;;;39.30;29.70;;;;;;;2.09;80.31;97456.70;104914;1258;98006;-80
2024/04/23 05:49:32;;;;;;;40.00;29.70;;;;;;;2.17;80.17;97458.17;104998;1257;98415;-78
2024/04/23 05:52:37;;;;;;;40.30;28.90;;;;;;;2.23;80.04;97455.95;105020;1254;103940;-81
2024/04/23 05:55:47;;;;;;;37.60;28.30;;;;;;;2.30;79.96;97458.27;104904;1259;101416;-78
2024/04/23 05:58:45;;;;;;;36.80;27.70;;;;;;;2.38;79.97;97457.00;100867;1260;5387502;-79
2024/04/23 06:01:35;;;;;;;41.80;29.90;;;;;;;2.47;79.71;97447.42;104776;1259;97913;-78
2024/04/23 06:04:05;;;;;;;41.70;29.60;;;;;;;2.49;79.53;97436.50;104945;1259;97913;-79
2024/04/23 06:06:42;;;;;;;44.60;30.20;;;;;;;2.58;79.62;97436.66;104973;1267;103707;-79
2024/04/23 06:09:35;;;;;;;39.80;30.40;;;;;;;2.70;79.61;97439.17;104938;1267;101069;-80
2024/04/23 06:12:06;;;;;;;42.50;29.70;;;;;;;2.82;79.67;97442.25;104787;1259;99374;-80
2024/04/23 06:14:57;;;;;;;37.80;27.50;;;;;;;2.94;79.66;97437.41;104859;1260;98181;-80
2024/04/23 06:18:05;;;;;;;31.70;24.00;;;;;;;3.08;79.55;97435.76;104792;1260;98479;-77
2024/04/23 06:20:55;;;;;;;28.30;20.80;;;;;;;3.24;79.30;97434.70;104830;1254;103857;-76
2024/04/23 06:24:04;;;;;;;25.70;20.20;;;;;;;3.40;79.05;97433.91;104916;1257;101494;-76
2024/04/23 06:26:35;;;;;;;29.40;20.50;;;;;;;3.55;78.85;97431.77;104870;1259;99022;-76
2024/04/23 06:29:03;;;;;;;25.30;18.40;;;;;;;3.69;78.72;97431.63;104860;1260;97893;-78
2024/04/23 06:32:11;;;;;;;28.00;19.70;;;;;;;3.81;78.56;97424.95;105747;1260;97925;-93
2024/04/23 06:35:25;;;;;;;25.70;19.60;;;;;;;3.94;78.46;97418.45;107037;1260;102551;-90
2024/04/23 06:38:33;;;;;;;30.10;20.70;;;;;;;4.07;78.37;97413.11;106821;1263;100602;-92
2024/04/23 06:41:38;;;;;;;24.70;18.70;;;;;;;4.19;78.27;97403.08;106798;1263;100286;-91
2024/04/23 06:44:12;;;;;;;26.00;19.30;;;;;;;4.30;78.00;97399.69;105478;1267;97899;-92
2024/04/23 06:46:59;;;;;;;25.60;18.10;;;;;;;4.42;77.94;97400.16;104599;1276;98354;-77
2024/04/23 06:50:07;;;;;;;25.00;17.30;;;;;;;4.56;77.67;97401.16;104160;1266;102739;-75
2024/04/23 06:53:15;;;;;;;24.20;16.40;;;;;;;4.72;77.39;97400.98;104169;1268;101419;-76
2024/04/23 06:55:54;;;;;;;21.90;15.40;;;;;;;4.87;77.19;97398.73;104168;1268;99995;-76
2024/04/23 06:58:26;;;;;;;19.90;15.20;;;;;;;4.97;76.58;97396.70;104189;1269;98174;-77
2024/04/23 07:04:48;;;;;;;19.50;14.70;;;;;;;5.12;76.16;97396.84;104545;1268;103963;-88
2024/04/23 07:07:46;;;;;;;20.70;14.30;;;;;;;5.20;75.86;97401.14;104187;1269;100330;-80
2024/04/23 07:10:37;;;;;;;22.60;15.50;;;;;;;5.26;75.73;97399.86;104171;1268;100067;-80
2024/04/23 07:13:23;;;;;;;23.90;16.10;;;;;;;5.39;76.03;97394.38;104482;1265;98022;-80
2024/04/23 07:16:05;;;;;;;23.30;15.20;;;;;;;5.58;76.04;97394.52;104530;1268;98856;-93
2024/04/23 07:18:38;;;;;;;22.70;16.50;;;;;;;5.72;75.59;97393.56;104875;1264;102684;-92
2024/04/23 07:21:21;;;;;;;33.30;19.20;;;;;;;5.85;75.34;97395.36;105154;1264;100429;-92
2024/04/23 07:24:30;;;;;;;21.80;14.90;;;;;;;6.02;75.23;97396.19;105242;1267;100232;-79
2024/04/23 07:27:20;;;;;;;16.90;12.70;;;;;;;6.23;74.83;97392.89;104718;1268;99283;-80
2024/04/23 07:30:17;;;;;;;15.50;11.20;;;;;;;6.38;74.57;97385.61;104959;1256;98453;-81
2024/04/23 07:33:25;;;;;;;18.80;10.50;;;;;;;6.57;73.98;97387.80;105002;1259;102144;-81
2024/04/23 07:36:33;;;;;;;13.00;9.80;;;;;;;6.80;72.61;97382.46;104837;1254;100571;-80
2024/04/23 07:39:24;;;;;;;12.10;8.60;;;;;;;7.11;72.58;97382.33;104875;1259;99402;-81
2024/04/23 07:42:32;;;;;;;12.40;8.70;;;;;;;7.52;72.16;97382.23;104979;1267;99129;-77
2024/04/23 07:45:40;;;;;;;11.20;8.70;;;;;;;7.88;70.96;97376.69;104876;1267;98446;-80
2024/04/23 07:48:48;;;;;;;10.20;7.70;;;;;;;7.98;70.13;97374.40;104975;1260;103636;-79
2024/04/23 07:51:39;;;;;;;12.20;8.20;;;;;;;7.90;69.77;97373.27;104826;1259;100590;-79
2024/04/23 07:54:50;;;;;;;10.50;7.70;;;;;;;8.07;69.96;97370.29;104841;1267;100108;-80
2024/04/23 07:57:48;;;;;;;11.30;7.90;;;;;;;8.72;69.57;97363.84;104954;1260;98440;-80
2024/04/23 08:00:55;;;;;;;10.60;7.80;;;;;;;9.09;68.62;97360.63;104787;1273;99222;-77
2024/04/23 08:04:05;;;;;;;10.70;7.70;;;;;;;9.05;68.10;97356.11;105292;1265;102742;-81
2024/04/23 08:07:13;;;;;;;10.40;7.00;;;;;;;9.47;68.18;97352.36;104323;1276;101577;-80
2024/04/23 08:10:21;;;;;;;9.40;6.90;;;;;;;10.18;67.30;97345.45;104367;1278;99108;-80
2024/04/23 08:13:22;;;;;;;8.60;6.60;;;;;;;10.72;66.19;97346.35;104333;1265;99284;-79
2024/04/23 08:16:30;;;;;;;9.40;6.50;;;;;;;10.98;65.52;97342.17;104299;1276;99257;-81
2024/04/23 08:19:38;;;;;;;7.70;5.60;;;;;;;11.52;65.34;97335.27;104383;1265;103767;-79
2024/04/23 08:22:06;;;;;;;7.20;5.90;;;;;;;12.16;63.73;97335.34;105426;1254;126336;-75
2024/04/23 08:24:33;;;;;;;7.20;6.10;;;;;;;12.42;62.06;97332.79;105115;1259;100765;-74
2024/04/23 08:27:01;;;;;;;8.80;6.20;;;;;;;12.33;61.05;97330.67;105023;1267;97944;-75
2024/04/23 08:29:28;;;;;;;7.20;6.10;;;;;;;12.53;61.51;97325.71;105054;1259;97933;-76
2024/04/23 08:31:56;;;;;;;6.30;5.70;;;;;;;12.99;61.72;97321.29;105073;1258;99318;-77
2024/04/23 08:34:23;;;;;;;6.50;5.40;;;;;;;13.35;61.27;97313.27;105008;1259;97996;-77
2024/04/23 08:36:51;;;;;;;9.20;5.70;;;;;;;13.56;60.59;97315.27;104943;1275;97931;-77
2024/04/23 08:39:19;;;;;;;9.20;5.50;;;;;;;13.62;59.68;97312.81;104911;1259;98492;-77
2024/04/23 08:41:48;;;;;;;7.20;6.20;;;;;;;13.36;58.92;97316.74;104984;1268;98425;-78
2024/04/23 08:44:21;;;;;;;6.30;5.60;;;;;;;13.18;58.85;97310.70;104896;1259;104347;-75
2024/04/23 08:46:48;;;;;;;7.10;5.80;;;;;;;13.08;58.85;97317.48;104940;1259;102324;-76
2024/04/23 08:49:16;;;;;;;8.80;6.00;;;;;;;12.95;58.74;97314.35;105017;1258;100506;-75
2024/04/23 08:51:44;;;;;;;8.80;5.30;;;;;;;13.25;58.52;97306.52;104798;1260;98055;-74
2024/04/23 08:54:12;;;;;;;8.20;6.00;;;;;;;13.52;57.75;97301.98;104801;1259;99225;-74
2024/04/23 08:56:44;;;;;;;7.50;6.00;;;;;;;13.40;57.62;97295.00;104843;1268;104435;-74
2024/04/23 08:59:14;;;;;;;;;;;;;;;13.18;57.02;97287.59;104848;1254;102249;-74
2024/04/23 09:01:46;;;;;;;7.80;6.00;;;;;;;12.90;56.74;97289.35;104793;1258;108225;-76
2024/04/23 09:04:14;;;;;;;;;;;;;;;12.76;57.39;97285.55;104811;1264;97933;-78
2024/04/23 09:06:43;;;;;;;7.50;5.90;;;;;;;12.77;57.10;97288.61;104765;1259;98435;-74
2024/04/23 09:09:15;;;;;;;7.70;5.80;;;;;;;12.52;56.68;97287.83;104833;1260;104332;-77
2024/04/23 09:11:43;;;;;;;6.60;5.90;;;;;;;12.34;56.85;97283.33;104758;1262;102092;-76
2024/04/23 09:14:11;;;;;;;7.80;6.50;;;;;;;12.27;57.04;97286.02;104740;1260;100566;-77
2024/04/23 09:16:38;;;;;;;7.80;6.30;;;;;;;12.30;57.02;97282.75;104814;1267;99283;-78
2024/04/23 09:19:05;;;;;;;6.80;6.00;;;;;;;12.45;56.49;97279.06;104832;1261;98026;-76
2024/04/23 09:21:33;;;;;;;8.00;5.60;;;;;;;12.53;56.89;97279.85;104868;1260;99211;-75
2024/04/23 09:24:02;;;;;;;6.60;5.80;;;;;;;12.78;56.16;97265.13;104813;1257;97912;-77
2024/04/23 09:26:31;;;;;;;6.50;5.80;;;;;;;13.18;56.24;97262.11;104922;1258;99193;-73
2024/04/23 09:29:00;;;;;;;7.80;5.70;;;;;;;13.26;55.17;97261.35;104773;1267;97999;-75
2024/04/23 09:31:27;;;;;;;7.30;6.10;;;;;;;13.15;54.30;97258.03;104798;1260;98420;-76
2024/04/23 09:34:00;;;;;;;6.80;6.10;;;;;;;12.97;55.14;97261.69;104914;1259;98000;-78
2024/04/23 09:36:28;;;;;;;;;;;;;;;12.92;55.57;97256.68;105101;1265;102234;-75
2024/04/23 09:38:58;;;;;;;7.90;5.80;;;;;;;12.88;55.12;97260.95;104920;1261;100646;-75
2024/04/23 09:41:26;;;;;;;6.20;5.20;;;;;;;12.66;54.73;97255.73;105126;1259;97912;-75
2024/04/23 09:44:02;;;;;;;7.40;6.50;;;;;;;12.48;55.14;97255.77;105103;1260;98451;-79
2024/04/23 09:46:38;;;;;;;9.20;7.00;;;;;;;12.30;55.14;97254.80;107132;1253;114155;-74
2024/04/23 09:49:07;;;;;;;8.10;7.10;;;;;;;12.14;55.09;97254.94;108178;1254;99116;-76
2024/04/23 09:51:35;;;;;;;9.20;7.30;;;;;;;11.99;54.86;97246.40;105599;1259;99049;-75
2024/04/23 09:54:04;;;;;;;9.20;6.90;;;;;;;11.80;55.39;97243.43;104940;1258;97904;-77
2024/04/23 09:56:32;;;;;;;10.30;7.90;;;;;;;11.90;55.78;97245.48;105010;1259;98857;-75
2024/04/23 09:58:59;;;;;;;9.40;7.90;;;;;;;12.04;55.72;97239.23;105064;1269;97970;-80
2024/04/23 10:09:32;;;;;;;9.50;7.70;;;;;;;11.59;54.49;97218.02;105019;1259;97916;-79
2024/04/23 10:12:18;;;;;;;8.50;7.30;;;;;;;11.46;55.09;97211.95;105662;1263;99229;-77
2024/04/23 10:19:09;;;;;;;10.10;8.20;;;;;;;11.58;55.29;97211.61;105100;1259;101694;-76
2024/04/23 10:21:42;;;;;;;8.10;7.10;;;;;;;11.62;55.28;97203.80;105045;1259;100827;-77
2024/04/23 10:24:10;;;;;;;11.20;8.70;;;;;;;11.76;55.47;97200.16;108240;1254;97842;-79
2024/04/23 10:30:24;;;;;;;8.50;7.30;;;;;;;11.77;54.58;97191.04;104945;1257;103953;-79
2024/04/23 10:32:58;;;;;;;9.80;8.20;;;;;;;11.73;54.82;97185.80;108454;1256;111052;-78
2024/04/23 10:35:35;;;;;;;9.10;7.40;;;;;;;11.70;54.30;97179.11;108439;1254;101138;-77
2024/04/23 10:38:55;;;;;;;9.30;6.80;;;;;;;11.76;53.97;97173.69;106441;1257;99207;-76
2024/04/23 10:42:00;;;;;;;8.10;6.20;;;;;;;11.94;53.10;97168.67;104951;1264;98346;-79
2024/04/23 10:44:28;;;;;;;7.70;6.50;;;;;;;12.06;53.58;97171.61;108507;1254;103923;-76
2024/04/23 10:50:41;;;;;;;9.70;6.70;;;;;;;12.24;53.61;97158.12;104957;1260;100395;-77
2024/04/23 10:53:13;;;;;;;8.20;6.10;;;;;;;12.34;53.65;97157.52;105234;1260;99107;-79
2024/04/23 10:59:44;;;;;;;8.50;6.10;;;;;;;12.20;52.91;97146.92;105125;1260;104170;-76
2024/04/23 11:06:51;;;;;;;6.50;5.60;;;;;;;12.58;53.09;97133.73;105017;1268;100325;-78
2024/04/23 11:17:21;;;;;;;9.10;7.10;;;;;;;13.05;53.72;97108.72;104555;1266;104166;-77
2024/04/23 11:19:59;;;;;;;9.70;5.80;;;;;;;13.48;53.68;97104.64;104364;1274;102343;-76
2024/04/23 11:26:47;;;;;;;6.80;6.10;;;;;;;13.63;51.84;97094.40;104146;1265;98110;-82
2024/04/23 13:11:59;;;;;;;5.00;3.90;;;;;;;14.74;46.45;96953.02;105015;1260;103973;-78
2024/04/23 13:14:29;;;;;;;4.90;4.40;;;;;;;14.65;46.66;96948.89;105111;1262;102821;-76
2024/04/23 13:16:59;;;;;;;5.80;4.70;;;;;;;14.56;46.87;96943.45;105100;1254;100751;-77
2024/04/23 13:19:27;;;;;;;5.60;5.00;;;;;;;14.42;46.72;96942.33;108411;1254;95826;-76
2024/04/23 13:21:56;;;;;;;6.40;5.10;;;;;;;14.26;46.97;96933.58;106467;1260;98418;-81
2024/04/23 13:24:38;;;;;;;7.60;5.10;;;;;;;14.18;47.31;96929.25;105513;1259;102430;-77
2024/04/23 13:27:12;;;;;;;6.50;4.70;;;;;;;14.09;47.60;96921.02;105479;1259;102106;-77
2024/04/23 13:29:42;;;;;;;6.00;4.80;;;;;;;14.02;47.83;96918.56;105167;1260;100693;-76
2024/04/23 13:32:18;;;;;;;6.90;5.10;;;;;;;13.96;47.83;96920.86;107814;1255;96552;-76
2024/04/23 13:34:45;;;;;;;5.60;4.80;;;;;;;13.85;47.31;96925.59;105155;1268;98397;-74
2024/04/23 13:44:26;;;;;;;6.40;5.30;;;;;;;13.53;47.78;96922.48;105138;1267;100292;-75
2024/04/23 13:51:09;;;;;;;7.50;5.50;;;;;;;13.45;47.95;96921.39;105022;1257;98361;-74
2024/04/23 14:53:06;;;;;;;11.60;7.10;;;;;;;12.49;50.04;96808.10;104423;1283;105416;-78
2024/04/23 15:37:52;;;;;;;7.10;5.90;;;;;;;12.50;50.15;96760.02;105108;1259;99438;-77
2024/04/23 15:40:28;;;;;;;8.20;6.60;;;;;;;12.38;49.94;96759.17;105246;1260;99262;-78
2024/04/23 15:46:53;;;;;;;13.00;7.20;;;;;;;12.20;50.43;96751.88;105123;1260;106924;-77
2024/04/23 16:00:59;;;;;;;7.80;6.50;;;;;;;11.83;51.30;96736.92;104629;1264;100902;-78
2024/04/23 17:41:03;;;;;;;12.70;10.30;;;;;;;9.15;58.34;96686.27;104940;1268;99261;-77
2024/04/23 18:23:52;;;;;;;21.40;16.30;;;;;;;8.45;60.88;96687.23;104841;1257;100084;-74
2024/04/23 19:42:29;;;;;;;24.80;18.70;;;;;;;7.70;64.25;96645.85;104974;1258;100327;-76
2024/04/23 19:45:27;;;;;;;26.90;19.90;;;;;;;7.66;64.34;96643.59;105034;1259;100569;-76
